Time;durP1;ratioP1;P1;durP2;ratioP2;P2;SDS_P1;SDS_P2;PMS_P1;PMS_P2;Temp;Humidity;BMP_temperature;BMP_pressure;BME280_temperature;BME280_humidity;BME280_pressure;Samples;Min_cycle;Max_cycle;Signal;HPM_P1;HPM_P2
2023/01/17 00:01:54;;;;;;;13.95;4.15;;;-0.90;99.90;;;;;;5064507;28;20051;-63
2023/01/17 00:09:55;;;;;;;7.18;3.20;;;-0.80;99.90;;;;;;5070186;28;20052;-63
2023/01/17 00:12:24;;;;;;;8.15;3.25;;;-0.90;99.90;;;;;;5076230;28;20052;-64
2023/01/17 00:14:53;;;;;;;6.72;3.17;;;-0.90;99.90;;;;;;5076232;28;20143;-63
2023/01/17 00:17:21;;;;;;;7.15;2.90;;;-0.90;99.90;;;;;;5075917;28;20053;-64
2023/01/17 01:35:28;;;;;;;7.10;2.58;;;-1.40;99.90;;;;;;5087901;28;20150;-62
2023/01/17 01:37:55;;;;;;;6.93;2.92;;;-1.40;99.90;;;;;;5086978;28;20086;-62
2023/01/17 01:40:22;;;;;;;7.90;2.60;;;-1.40;99.90;;;;;;5087854;28;20047;-61
2023/01/17 01:42:53;;;;;;;5.20;3.10;;;-1.40;99.90;;;;;;5084887;28;20054;-63
2023/01/17 01:45:24;;;;;;;5.03;2.20;;;-1.40;99.90;;;;;;5080010;28;20048;-62
2023/01/17 01:47:54;;;;;;;7.50;2.90;;;-1.40;99.90;;;;;;5070148;28;20274;-63
2023/01/17 01:50:21;;;;;;;4.95;2.47;;;-1.40;99.90;;;;;;5087370;28;20133;-63
2023/01/17 01:52:52;;;;;;;6.47;3.40;;;-1.40;99.90;;;;;;5053008;28;20162;-62
2023/01/17 01:55:24;;;;;;;6.20;2.67;;;-1.40;99.90;;;;;;5074703;28;20043;-63
2023/01/17 01:57:54;;;;;;;7.75;2.97;;;-1.40;99.90;;;;;;5067618;28;20052;-63
2023/01/17 02:00:28;;;;;;;5.68;2.72;;;-1.50;99.90;;;;;;5082065;28;20046;-62
2023/01/17 02:02:57;;;;;;;6.35;3.28;;;-1.20;99.90;;;;;;5069306;28;20081;-62
2023/01/17 02:05:24;;;;;;;6.70;3.90;;;-1.50;99.90;;;;;;5090877;28;20127;-62
2023/01/17 02:07:55;;;;;;;7.05;2.72;;;-1.50;99.90;;;;;;5093011;28;20059;-62
2023/01/17 02:10:22;;;;;;;5.18;2.80;;;-1.50;99.90;;;;;;5074165;28;20043;-62
2023/01/17 02:12:50;;;;;;;6.43;3.08;;;-1.60;99.90;;;;;;5093257;28;20071;-62
2023/01/17 02:15:17;;;;;;;6.55;2.67;;;-1.60;99.90;;;;;;5083166;28;20048;-62
2023/01/17 02:18:00;;;;;;;3.90;2.55;;;-1.60;99.90;;;;;;5090623;28;20522;-63
2023/01/17 02:21:04;;;;;;;6.95;3.08;;;-1.60;99.90;;;;;;5082054;28;20048;-62
2023/01/17 02:23:50;;;;;;;7.15;3.25;;;-1.60;99.90;;;;;;5089801;28;20044;-63
2023/01/17 02:26:41;;;;;;;3.85;2.60;;;-1.60;99.90;;;;;;5090191;28;20135;-62
2023/01/17 02:29:33;;;;;;;7.00;3.70;;;-1.60;99.90;;;;;;5087057;28;20126;-62
2023/01/17 02:32:04;;;;;;;5.28;3.20;;;-1.60;99.90;;;;;;5080943;28;20139;-62
2023/01/17 02:34:44;;;;;;;5.45;3.30;;;-1.70;99.90;;;;;;5087480;28;20040;-62
2023/01/17 02:37:21;;;;;;;4.28;2.42;;;-1.70;99.90;;;;;;5060650;28;20051;-62
2023/01/17 02:39:53;;;;;;;4.95;2.85;;;-1.70;99.90;;;;;;5060234;28;20044;-62
2023/01/17 02:42:20;;;;;;;5.28;2.42;;;-1.80;99.90;;;;;;5054171;28;20054;-62
2023/01/17 02:44:46;;;;;;;5.68;2.40;;;-1.80;99.90;;;;;;5040360;28;20058;-63
2023/01/17 02:47:24;;;;;;;6.70;3.00;;;-1.80;99.90;;;;;;5089502;28;20094;-63
2023/01/17 02:49:52;;;;;;;6.38;2.45;;;-1.90;99.90;;;;;;5088428;28;20368;-62
2023/01/17 02:52:44;;;;;;;7.50;3.25;;;-1.90;99.90;;;;;;5078733;28;20048;-63
2023/01/17 02:55:49;;;;;;;6.28;2.90;;;-1.90;99.90;;;;;;5087625;28;20148;-63
2023/01/17 02:58:49;;;;;;;5.85;2.70;;;-1.90;99.90;;;;;;5089571;28;20082;-63
2023/01/17 03:01:36;;;;;;;4.20;2.33;;;-2.00;99.90;;;;;;5055344;28;20255;-62
2023/01/17 03:04:13;;;;;;;7.20;2.85;;;-1.90;99.90;;;;;;5050508;28;20064;-61
2023/01/17 03:07:05;;;;;;;3.83;2.38;;;-1.90;99.90;;;;;;5044084;28;20578;-62
2023/01/17 03:09:31;;;;;;;4.70;2.00;;;-1.90;99.90;;;;;;5053762;28;20076;-62
2023/01/17 03:11:58;;;;;;;2.85;1.90;;;-1.90;99.90;;;;;;5071660;28;20361;-62
2023/01/17 03:14:26;;;;;;;4.65;1.88;;;-1.90;99.90;;;;;;5087782;28;20066;-62
2023/01/17 03:16:53;;;;;;;5.78;2.10;;;-1.90;99.90;;;;;;5088750;28;20043;-62
2023/01/17 03:19:20;;;;;;;5.05;2.03;;;-1.80;99.90;;;;;;5075157;28;20066;-62
2023/01/17 03:21:48;;;;;;;6.97;2.83;;;-1.80;99.90;;;;;;5075303;28;20047;-62
2023/01/17 03:24:15;;;;;;;5.35;2.08;;;-1.80;99.90;;;;;;5089218;28;20077;-62
2023/01/17 03:26:43;;;;;;;3.75;2.33;;;-1.80;99.90;;;;;;5088984;28;20119;-62
2023/01/17 03:29:10;;;;;;;9.00;2.47;;;-1.80;99.90;;;;;;5088686;28;20115;-63
2023/01/17 03:31:37;;;;;;;3.65;2.38;;;-1.80;99.90;;;;;;5089056;28;20071;-62
2023/01/17 03:34:04;;;;;;;3.33;2.00;;;-1.80;99.90;;;;;;5088522;28;20040;-62
2023/01/17 03:36:30;;;;;;;4.50;2.45;;;-1.80;99.90;;;;;;5088645;28;20050;-62
2023/01/17 03:38:57;;;;;;;7.03;2.22;;;-1.80;99.90;;;;;;5088727;28;20170;-62
2023/01/17 03:41:24;;;;;;;4.35;1.88;;;-1.80;99.90;;;;;;5088844;28;20048;-63
2023/01/17 03:43:50;;;;;;;4.88;1.80;;;-1.80;99.90;;;;;;5081652;28;20399;-63
2023/01/17 03:46:23;;;;;;;5.05;2.00;;;-1.80;99.90;;;;;;5088820;28;20404;-63
2023/01/17 03:48:50;;;;;;;6.82;3.30;;;-1.80;99.90;;;;;;5087116;28;20418;-63
2023/01/17 03:51:17;;;;;;;6.47;2.85;;;-1.80;99.90;;;;;;5087590;28;20138;-62
2023/01/17 03:53:46;;;;;;;5.68;2.00;;;-1.50;99.90;;;;;;5075548;28;20135;-63
2023/01/17 03:56:13;;;;;;;5.45;2.20;;;-1.10;99.90;;;;;;5087158;28;20052;-62
2023/01/17 03:58:40;;;;;;;3.60;2.25;;;-1.90;99.90;;;;;;5088290;28;20517;-62
2023/01/17 04:01:07;;;;;;;6.18;2.42;;;-1.90;99.90;;;;;;5084905;28;20394;-62
2023/01/17 04:03:34;;;;;;;5.25;2.55;;;-2.00;99.90;;;;;;5085058;28;20517;-62
2023/01/17 04:06:00;;;;;;;4.53;2.38;;;-2.00;99.90;;;;;;5082871;28;20502;-62
2023/01/17 04:08:29;;;;;;;5.03;2.22;;;-2.00;99.90;;;;;;5081087;28;20048;-62
2023/01/17 04:10:56;;;;;;;5.43;2.13;;;-1.90;99.90;;;;;;5073282;28;20089;-63
2023/01/17 04:13:22;;;;;;;8.77;1.92;;;-1.90;99.90;;;;;;5088813;28;20075;-63
2023/01/17 04:15:49;;;;;;;6.43;2.05;;;-2.00;99.90;;;;;;5087394;28;20126;-64
2023/01/17 04:18:17;;;;;;;4.72;2.15;;;-2.10;99.90;;;;;;5066957;28;20603;-63
2023/01/17 04:20:43;;;;;;;5.05;2.40;;;-1.30;99.90;;;;;;5078759;28;20134;-64
2023/01/17 04:23:10;;;;;;;5.53;2.00;;;-2.10;99.90;;;;;;5088311;28;20071;-63
2023/01/17 04:25:37;;;;;;;8.00;2.95;;;-2.10;99.90;;;;;;5088477;28;20040;-63
2023/01/17 04:28:04;;;;;;;4.85;2.95;;;-2.10;99.90;;;;;;5053889;28;20040;-64
2023/01/17 04:30:31;;;;;;;5.47;2.53;;;-2.10;99.90;;;;;;5083563;28;20134;-63
2023/01/17 04:32:58;;;;;;;3.63;2.00;;;-2.10;99.90;;;;;;5092073;28;20056;-63
2023/01/17 04:35:24;;;;;;;3.60;2.20;;;-2.10;99.90;;;;;;5079872;28;20050;-63
2023/01/17 04:37:51;;;;;;;3.60;2.13;;;-2.10;99.90;;;;;;5091091;28;20052;-63
2023/01/17 04:40:18;;;;;;;5.85;2.03;;;-2.10;99.90;;;;;;5091755;28;20047;-63
2023/01/17 04:42:45;;;;;;;7.05;3.00;;;-2.10;99.90;;;;;;5092947;28;20067;-63
2023/01/17 04:45:12;;;;;;;4.50;2.22;;;-2.20;99.90;;;;;;5078131;28;20052;-63
2023/01/17 04:47:39;;;;;;;6.35;2.90;;;-2.20;99.90;;;;;;5092024;28;20039;-63
2023/01/17 04:50:06;;;;;;;8.88;2.65;;;-2.20;99.90;;;;;;5078073;28;20048;-63
2023/01/17 04:52:33;;;;;;;5.35;1.80;;;-2.20;99.90;;;;;;5089562;28;20076;-63
2023/01/17 04:55:00;;;;;;;10.25;1.90;;;-2.20;99.90;;;;;;5091770;28;20094;-63
2023/01/17 04:57:27;;;;;;;3.95;1.90;;;-2.30;99.90;;;;;;5078404;28;20444;-63
2023/01/17 04:59:54;;;;;;;4.78;1.90;;;-2.30;99.90;;;;;;5076541;28;20139;-63
2023/01/17 05:02:21;;;;;;;5.80;1.73;;;-2.40;99.90;;;;;;5080492;28;20044;-63
2023/01/17 05:04:48;;;;;;;4.78;1.73;;;-2.40;99.90;;;;;;5095356;28;20506;-63
2023/01/17 05:07:14;;;;;;;7.15;2.47;;;-2.50;99.90;;;;;;5095417;28;20476;-63
2023/01/17 05:09:42;;;;;;;6.57;2.40;;;-2.50;99.90;;;;;;5092402;28;20066;-63
2023/01/17 05:12:09;;;;;;;4.93;2.03;;;-2.50;99.90;;;;;;5087737;28;20106;-63
2023/01/17 05:14:36;;;;;;;3.72;2.10;;;-2.50;99.90;;;;;;5094863;28;20127;-63
2023/01/17 05:17:03;;;;;;;4.93;2.08;;;-2.50;99.90;;;;;;5094900;28;20048;-63
2023/01/17 05:19:29;;;;;;;5.55;2.10;;;-2.50;99.90;;;;;;5086712;28;20040;-63
2023/01/17 05:22:02;;;;;;;4.20;1.92;;;-2.50;99.90;;;;;;5088573;28;20507;-63
2023/01/17 05:24:30;;;;;;;2.53;1.80;;;-2.60;99.90;;;;;;5095203;28;20044;-63
2023/01/17 05:27:01;;;;;;;4.88;2.30;;;-2.60;99.90;;;;;;5071810;28;20123;-63
2023/01/17 05:29:29;;;;;;;6.22;2.28;;;-2.50;99.90;;;;;;5077112;28;20422;-63
2023/01/17 05:31:56;;;;;;;2.80;1.65;;;-2.60;99.90;;;;;;5086538;28;20047;-63
2023/01/17 05:34:23;;;;;;;3.53;1.70;;;-2.70;99.90;;;;;;5093780;28;20123;-63
2023/01/17 05:36:49;;;;;;;4.05;1.88;;;-2.70;99.90;;;;;;5093292;28;20048;-63
2023/01/17 05:39:16;;;;;;;5.00;1.98;;;-2.70;99.90;;;;;;5092054;28;20186;-63
2023/01/17 05:41:43;;;;;;;2.85;1.92;;;-2.80;99.90;;;;;;5093374;28;20048;-63
2023/01/17 05:44:10;;;;;;;4.53;2.30;;;-2.70;99.90;;;;;;5093530;28;20050;-63
2023/01/17 05:46:37;;;;;;;3.97;2.10;;;-2.80;99.90;;;;;;5092942;28;20040;-63
2023/01/17 05:49:04;;;;;;;5.95;2.40;;;-2.80;99.90;;;;;;5087330;28;20040;-63
2023/01/17 05:51:31;;;;;;;5.95;2.78;;;-2.80;99.90;;;;;;5082938;28;20136;-63
2023/01/17 05:53:58;;;;;;;5.68;2.63;;;-2.80;99.90;;;;;;5092758;28;20051;-64
2023/01/17 05:56:24;;;;;;;4.85;2.47;;;-2.80;99.90;;;;;;5091130;28;20072;-63
2023/01/17 05:58:51;;;;;;;5.97;2.47;;;-2.70;99.90;;;;;;5085414;28;20048;-64
2023/01/17 06:01:18;;;;;;;5.53;2.83;;;-2.60;99.90;;;;;;5077330;28;20079;-63
2023/01/17 06:03:45;;;;;;;8.50;2.80;;;-2.80;99.90;;;;;;5094297;28;20040;-63
2023/01/17 06:06:12;;;;;;;4.60;2.45;;;-2.80;99.90;;;;;;5091883;28;20051;-63
2023/01/17 06:08:39;;;;;;;4.43;2.03;;;-2.80;99.90;;;;;;5090989;28;20315;-63
2023/01/17 06:11:05;;;;;;;6.03;2.67;;;-2.70;99.90;;;;;;5072224;28;20059;-63
2023/01/17 06:13:32;;;;;;;5.70;2.67;;;-2.90;99.90;;;;;;5076747;28;20082;-63
2023/01/17 06:16:02;;;;;;;9.48;3.85;;;-2.70;99.90;;;;;;5089526;28;20345;-62
2023/01/17 06:18:30;;;;;;;4.05;2.78;;;-2.80;99.90;;;;;;5089793;28;20056;-63
2023/01/17 06:20:57;;;;;;;4.55;2.63;;;-2.80;99.90;;;;;;5090011;28;20056;-63
2023/01/17 06:23:23;;;;;;;8.77;2.85;;;-2.90;99.90;;;;;;5090200;28;20054;-63
2023/01/17 06:25:50;;;;;;;6.32;3.20;;;-2.90;99.90;;;;;;5089878;28;20448;-63
2023/01/17 06:28:19;;;;;;;5.35;2.75;;;-2.90;99.90;;;;;;5089020;28;20106;-63
2023/01/17 06:30:46;;;;;;;4.75;2.53;;;-2.90;99.90;;;;;;5090164;28;20044;-63
2023/01/17 06:33:13;;;;;;;4.10;2.38;;;-2.90;99.90;;;;;;5059351;28;20054;-62
2023/01/17 06:35:46;;;;;;;6.05;3.85;;;-2.90;99.90;;;;;;5056473;28;20049;-63
2023/01/17 06:38:13;;;;;;;6.33;2.90;;;-3.00;99.90;;;;;;5066360;28;20542;-62
2023/01/17 06:40:39;;;;;;;9.15;2.95;;;-3.00;99.90;;;;;;5088394;28;20051;-62
2023/01/17 06:43:06;;;;;;;3.80;2.35;;;-3.00;99.90;;;;;;5069597;28;20052;-62
2023/01/17 06:45:33;;;;;;;6.38;2.58;;;-3.00;99.90;;;;;;5088313;28;20401;-62
2023/01/17 06:48:02;;;;;;;8.90;2.97;;;-3.00;99.90;;;;;;5089022;28;20090;-62
2023/01/17 06:50:29;;;;;;;5.63;2.80;;;-3.00;99.90;;;;;;5082265;28;20059;-62
2023/01/17 06:52:58;;;;;;;8.02;3.08;;;-3.00;99.90;;;;;;5070847;28;20054;-62
2023/01/17 06:55:27;;;;;;;6.45;2.85;;;-3.00;99.90;;;;;;5089236;28;20368;-63
2023/01/17 06:57:55;;;;;;;8.80;3.30;;;-3.00;99.90;;;;;;5070801;28;20138;-63
2023/01/17 07:00:22;;;;;;;6.55;3.15;;;-3.00;99.90;;;;;;5082367;28;20040;-63
2023/01/17 07:02:49;;;;;;;10.73;4.07;;;-3.10;99.90;;;;;;5088913;28;20066;-62
2023/01/17 07:05:16;;;;;;;7.28;3.55;;;-3.10;99.90;;;;;;5089161;28;20127;-63
2023/01/17 07:07:43;;;;;;;4.60;2.90;;;-3.00;99.90;;;;;;5088563;28;20455;-62
2023/01/17 07:10:11;;;;;;;4.20;2.85;;;-2.90;99.90;;;;;;5082064;28;20083;-62
2023/01/17 07:12:39;;;;;;;17.60;3.75;;;-3.00;99.90;;;;;;5053847;28;20564;-62
2023/01/17 07:15:06;;;;;;;8.43;3.80;;;-3.00;99.90;;;;;;5088003;28;20502;-63
2023/01/17 07:17:33;;;;;;;7.63;3.55;;;-3.00;99.90;;;;;;4718827;28;10000574;-63
2023/01/17 07:20:00;;;;;;;7.13;3.00;;;-3.00;99.90;;;;;;5084691;28;20074;-63
2023/01/17 07:22:27;;;;;;;4.75;3.42;;;-2.90;99.90;;;;;;5082387;28;20138;-63
2023/01/17 07:24:57;;;;;;;5.20;2.63;;;-3.00;99.90;;;;;;5085064;28;20146;-64
2023/01/17 07:27:26;;;;;;;6.65;2.67;;;-3.10;99.90;;;;;;5074317;28;20098;-64
2023/01/17 07:29:53;;;;;;;7.53;3.22;;;-3.10;99.90;;;;;;5074423;28;20056;-63
2023/01/17 07:32:20;;;;;;;9.10;3.00;;;-3.00;99.90;;;;;;5088994;28;20044;-64
2023/01/17 07:34:47;;;;;;;7.53;3.40;;;-3.10;99.90;;;;;;5084736;28;20469;-64
2023/01/17 07:37:14;;;;;;;7.10;3.55;;;-3.10;99.90;;;;;;5075961;28;20067;-63
2023/01/17 07:39:41;;;;;;;5.53;3.15;;;-3.10;99.90;;;;;;5067835;28;20592;-63
2023/01/17 07:42:08;;;;;;;6.22;3.25;;;-3.10;99.90;;;;;;5077543;28;20099;-63
2023/01/17 07:44:34;;;;;;;6.78;3.03;;;-3.10;99.90;;;;;;5085538;28;20508;-63
2023/01/17 07:47:03;;;;;;;8.30;3.55;;;-3.00;99.90;;;;;;5078597;28;20052;-63
2023/01/17 07:49:30;;;;;;;5.18;3.45;;;-3.00;99.90;;;;;;5085114;28;20055;-63
2023/01/17 07:51:56;;;;;;;8.02;2.70;;;-2.90;99.90;;;;;;5085073;28;20052;-64
2023/01/17 07:54:23;;;;;;;7.07;3.53;;;-2.90;99.90;;;;;;5085873;28;20414;-63
2023/01/17 07:56:50;;;;;;;4.22;2.20;;;-2.90;99.90;;;;;;5078139;28;20060;-63
2023/01/17 07:59:17;;;;;;;10.20;3.33;;;-2.80;99.90;;;;;;5085681;28;20532;-62
2023/01/17 08:01:44;;;;;;;14.20;4.63;;;-2.70;99.90;;;;;;5076458;28;20044;-62
2023/01/17 08:04:12;;;;;;;5.93;3.40;;;-2.80;99.90;;;;;;5085223;28;20134;-62
2023/01/17 08:06:41;;;;;;;7.22;3.80;;;-2.80;99.90;;;;;;5085616;28;20052;-63
2023/01/17 08:09:08;;;;;;;5.85;3.30;;;-2.80;99.90;;;;;;5067476;28;20055;-64
2023/01/17 08:11:35;;;;;;;6.60;2.33;;;-2.80;99.90;;;;;;5068528;28;20644;-63
2023/01/17 08:14:02;;;;;;;5.47;2.92;;;-2.80;99.90;;;;;;5085165;28;20052;-63
2023/01/17 08:16:28;;;;;;;6.18;2.63;;;-2.90;99.90;;;;;;5085729;28;20090;-63
2023/01/17 08:18:55;;;;;;;4.78;2.67;;;-2.90;99.90;;;;;;5081290;28;20044;-62
2023/01/17 08:21:22;;;;;;;3.83;2.00;;;-2.80;99.90;;;;;;5053572;28;20439;-63
2023/01/17 08:23:49;;;;;;;8.93;2.63;;;-2.80;99.90;;;;;;5076070;28;20048;-63
2023/01/17 08:26:21;;;;;;;3.97;2.08;;;-2.80;99.90;;;;;;5082351;28;20498;-64
2023/01/17 08:28:55;;;;;;;5.38;3.25;;;-2.80;99.90;;;;;;5077527;28;20044;-65
2023/01/17 08:31:22;;;;;;;4.07;2.85;;;-2.80;99.90;;;;;;5085335;28;20159;-62
2023/01/17 08:33:49;;;;;;;6.22;3.40;;;-2.80;99.90;;;;;;5061703;28;20402;-65
2023/01/17 08:36:16;;;;;;;6.45;2.95;;;-2.90;99.90;;;;;;5084953;28;20044;-62
2023/01/17 08:38:43;;;;;;;8.32;3.35;;;-2.10;99.90;;;;;;5084777;28;20059;-64
2023/01/17 08:41:11;;;;;;;5.72;3.40;;;-2.60;99.90;;;;;;5084130;28;20179;-62
2023/01/17 08:43:39;;;;;;;4.68;2.65;;;-2.60;99.90;;;;;;5055330;28;20075;-63
2023/01/17 08:46:05;;;;;;;5.35;2.92;;;-2.50;99.90;;;;;;5066420;28;20048;-63
2023/01/17 08:48:32;;;;;;;6.15;3.45;;;-2.60;99.90;;;;;;5084596;28;20052;-64
2023/01/17 08:51:03;;;;;;;4.85;2.92;;;-2.60;99.90;;;;;;5084894;28;20052;-63
2023/01/17 08:53:30;;;;;;;4.18;3.03;;;-2.70;99.90;;;;;;5071126;28;20051;-63
2023/01/17 08:55:58;;;;;;;8.80;3.25;;;-2.70;99.90;;;;;;5085160;28;20201;-62
2023/01/17 08:58:26;;;;;;;7.60;3.05;;;-2.60;99.90;;;;;;5078868;28;20040;-62
2023/01/17 09:01:01;;;;;;;4.85;2.80;;;-2.50;99.90;;;;;;5084530;28;20044;-63
2023/01/17 09:03:29;;;;;;;9.80;3.58;;;-2.40;99.90;;;;;;5070846;28;20052;-63
2023/01/17 09:06:03;;;;;;;5.88;3.10;;;-2.30;99.90;;;;;;5083833;28;20064;-63
2023/01/17 09:08:29;;;;;;;6.25;3.72;;;-2.30;99.90;;;;;;5073264;28;20058;-62
2023/01/17 09:10:57;;;;;;;8.98;5.13;;;-2.20;99.90;;;;;;5079953;28;20102;-63
2023/01/17 09:13:24;;;;;;;8.77;4.97;;;-2.20;99.90;;;;;;5084474;28;20052;-62
2023/01/17 09:15:55;;;;;;;7.43;4.53;;;-2.10;99.90;;;;;;5073213;28;20101;-64
2023/01/17 09:18:23;;;;;;;7.03;4.30;;;-2.10;99.90;;;;;;5088203;28;20040;-62
2023/01/17 09:20:53;;;;;;;7.38;3.47;;;-2.00;99.90;;;;;;5088707;28;20571;-62
2023/01/17 09:23:21;;;;;;;10.18;3.72;;;-1.90;99.90;;;;;;5084362;28;20058;-62
2023/01/17 09:25:55;;;;;;;10.02;4.72;;;-1.80;99.90;;;;;;5079141;28;20143;-62
2023/01/17 09:28:23;;;;;;;10.77;3.53;;;-1.80;99.90;;;;;;5071752;28;20545;-62
2023/01/17 09:30:50;;;;;;;7.38;3.92;;;-1.80;99.90;;;;;;5088177;28;20400;-62
2023/01/17 09:33:17;;;;;;;7.85;3.70;;;-1.70;99.90;;;;;;5087785;28;20506;-68
2023/01/17 09:35:44;;;;;;;8.88;3.63;;;-1.70;99.90;;;;;;5088308;28;20052;-63
2023/01/17 09:38:11;;;;;;;9.45;3.88;;;-1.70;99.90;;;;;;5085473;28;20368;-62
2023/01/17 09:40:44;;;;;;;9.25;3.20;;;-1.70;99.90;;;;;;5088324;28;20040;-63
2023/01/17 09:43:42;;;;;;;10.00;3.83;;;-1.70;99.90;;;;;;5086615;28;20438;-62
2023/01/17 09:46:21;;;;;;;6.90;3.38;;;-1.70;99.90;;;;;;5087202;28;20364;-62
2023/01/17 09:48:50;;;;;;;18.98;4.20;;;-1.40;99.90;;;;;;5054903;28;20056;-63
2023/01/17 09:51:25;;;;;;;8.32;2.92;;;-1.50;99.90;;;;;;5042347;28;20055;-62
2023/01/17 09:53:52;;;;;;;8.65;4.03;;;-1.50;99.90;;;;;;5069994;28;20046;-62
2023/01/17 09:56:28;;;;;;;19.27;4.50;;;-1.50;99.90;;;;;;5081465;28;20044;-63
2023/01/17 09:59:19;;;;;;;16.25;5.55;;;-1.50;99.90;;;;;;5087385;28;20048;-63
2023/01/17 10:01:57;;;;;;;17.80;7.00;;;-1.50;99.90;;;;;;5063791;28;20127;-64
2023/01/17 10:04:33;;;;;;;14.40;6.30;;;-1.40;99.90;;;;;;5089259;28;20093;-62
2023/01/17 10:07:22;;;;;;;14.88;4.40;;;-1.30;99.90;;;;;;5077288;28;20135;-62
2023/01/17 10:10:16;;;;;;;11.10;3.80;;;-1.20;99.90;;;;;;5070961;28;20507;-63
2023/01/17 10:12:57;;;;;;;10.07;2.88;;;-1.20;99.90;;;;;;5052448;28;20056;-63
2023/01/17 10:15:43;;;;;;;7.75;4.13;;;-1.10;99.90;;;;;;5065387;28;20075;-63
2023/01/17 10:18:32;;;;;;;11.63;5.30;;;-1.10;99.90;;;;;;5086588;28;20441;-62
2023/01/17 10:21:17;;;;;;;16.90;4.65;;;-1.10;99.90;;;;;;5085911;28;20139;-63
2023/01/17 10:24:40;;;;;;;13.40;5.10;;;-1.10;99.90;;;;;;5073506;28;20396;-63
2023/01/17 10:27:29;;;;;;;14.82;4.28;;;-1.00;99.90;;;;;;4998468;28;20499;-62
2023/01/17 10:29:56;;;;;;;11.23;5.20;;;-0.80;99.90;;;;;;5050505;28;20501;-62
2023/01/17 10:32:24;;;;;;;15.18;4.20;;;-0.90;99.90;;;;;;5086833;28;20047;-61
2023/01/17 10:34:51;;;;;;;10.20;3.90;;;-0.80;99.90;;;;;;5069080;28;20059;-63
2023/01/17 10:37:40;;;;;;;9.57;4.57;;;-0.90;99.90;;;;;;5072028;28;20044;-63
2023/01/17 10:40:27;;;;;;;14.18;6.05;;;-0.40;99.90;;;;;;5067900;28;20258;-62
2023/01/17 10:43:02;;;;;;;12.48;5.45;;;-0.80;99.90;;;;;;5078253;28;20139;-62
2023/01/17 10:45:28;;;;;;;17.95;7.30;;;-0.70;99.90;;;;;;5085735;28;20174;-64
2023/01/17 10:48:20;;;;;;;12.80;5.18;;;0.00;99.90;;;;;;5056858;28;20349;-63
2023/01/17 10:50:58;;;;;;;16.33;5.85;;;-0.60;99.90;;;;;;5071133;28;20044;-63
2023/01/17 10:53:28;;;;;;;12.80;4.47;;;-0.60;99.90;;;;;;5086562;28;20059;-63
2023/01/17 10:55:55;;;;;;;13.70;4.50;;;-0.50;99.90;;;;;;5086440;28;20074;-64
2023/01/17 10:58:21;;;;;;;11.90;5.40;;;-0.20;99.90;;;;;;5085971;28;20044;-62
2023/01/17 11:00:59;;;;;;;13.52;4.75;;;-0.30;99.90;;;;;;5085313;28;20044;-62
2023/01/17 11:03:27;;;;;;;11.48;5.22;;;-0.30;99.90;;;;;;5077717;28;20044;-63
2023/01/17 11:06:14;;;;;;;12.13;4.78;;;-0.20;99.90;;;;;;5068106;28;20059;-62
2023/01/17 11:08:57;;;;;;;21.08;5.35;;;-0.20;99.90;;;;;;5083237;28;20047;-62
2023/01/17 11:11:34;;;;;;;12.35;5.25;;;0.60;99.90;;;;;;5051518;28;20066;-65
2023/01/17 11:14:04;;;;;;;13.88;6.30;;;-0.20;99.90;;;;;;5066550;28;20056;-62
2023/01/17 11:16:31;;;;;;;11.63;5.13;;;-0.20;99.90;;;;;;5051737;28;20133;-64
2023/01/17 11:19:20;;;;;;;8.73;4.43;;;-0.20;99.90;;;;;;5085763;28;20497;-63
2023/01/17 11:21:53;;;;;;;11.05;5.10;;;-0.10;99.90;;;;;;5067459;28;20137;-64
2023/01/17 11:24:34;;;;;;;16.27;5.65;;;-0.10;99.90;;;;;;5073228;28;20052;-63
2023/01/17 11:27:03;;;;;;;12.63;5.78;;;-0.10;99.90;;;;;;5068609;28;20145;-62
2023/01/17 11:29:30;;;;;;;21.02;6.15;;;-0.10;99.90;;;;;;5055476;28;20047;-64
2023/01/17 11:31:57;;;;;;;11.45;5.68;;;-0.10;99.90;;;;;;5085525;28;20139;-62
2023/01/17 11:34:30;;;;;;;10.30;5.93;;;-0.10;99.90;;;;;;5049425;28;20430;-63
2023/01/17 11:37:17;;;;;;;19.85;7.28;;;0.00;99.90;;;;;;5084863;28;20135;-62
2023/01/17 11:39:46;;;;;;;14.77;6.18;;;0.10;99.90;;;;;;5072333;28;20489;-63
2023/01/17 11:42:33;;;;;;;12.07;6.38;;;0.10;99.90;;;;;;5084953;28;20059;-62
2023/01/17 11:45:29;;;;;;;14.95;8.07;;;0.40;99.90;;;;;;5076780;28;20174;-62
2023/01/17 11:48:09;;;;;;;13.63;7.70;;;0.20;99.90;;;;;;5067887;28;20138;-63
2023/01/17 11:50:38;;;;;;;14.90;7.63;;;0.30;99.90;;;;;;5085704;28;20233;-61
2023/01/17 11:53:27;;;;;;;18.60;8.05;;;0.40;99.90;;;;;;5062762;28;20410;-62
2023/01/17 11:56:10;;;;;;;24.77;11.40;;;0.50;99.90;;;;;;5067521;28;20468;-62
2023/01/17 11:58:39;;;;;;;24.50;7.47;;;0.60;99.90;;;;;;5079576;28;20062;-63
2023/01/17 12:01:25;;;;;;;20.55;7.72;;;0.70;99.90;;;;;;5085212;28;20145;-62
2023/01/17 12:04:06;;;;;;;20.92;7.75;;;0.70;99.90;;;;;;5071455;28;20131;-63
2023/01/17 12:07:09;;;;;;;15.77;8.32;;;0.80;99.90;;;;;;5076604;28;20044;-62
2023/01/17 12:09:56;;;;;;;13.70;7.03;;;0.90;99.90;;;;;;5070829;28;20055;-63
2023/01/17 12:15:18;;;;;;;14.70;7.35;;;0.90;99.90;;;;;;5079438;28;20044;-64
2023/01/17 12:18:13;;;;;;;13.27;7.10;;;1.00;99.90;;;;;;5085132;28;20091;-64
2023/01/17 12:21:04;;;;;;;21.85;6.93;;;1.10;99.90;;;;;;5085073;28;20048;-63
2023/01/17 12:24:04;;;;;;;15.90;5.57;;;1.10;99.90;;;;;;5085031;28;20055;-61
2023/01/17 12:26:41;;;;;;;16.08;6.93;;;1.10;99.90;;;;;;5085212;28;20413;-62
2023/01/17 12:29:30;;;;;;;18.25;6.55;;;1.10;99.90;;;;;;5067232;28;20521;-62
2023/01/17 12:32:34;;;;;;;11.48;6.43;;;1.20;99.90;;;;;;5064811;28;20052;-62
2023/01/17 12:35:14;;;;;;;11.93;6.65;;;1.20;99.90;;;;;;5084287;28;20078;-63
2023/01/17 12:37:45;;;;;;;15.80;6.68;;;1.30;99.90;;;;;;5084509;28;20086;-63
2023/01/17 12:40:50;;;;;;;14.88;7.55;;;1.30;99.90;;;;;;5060884;28;20165;-62
2023/01/17 12:43:20;;;;;;;12.40;6.45;;;1.30;99.90;;;;;;5076458;28;20055;-63
2023/01/17 12:45:48;;;;;;;13.30;5.95;;;1.40;99.90;;;;;;5070462;28;20040;-63
2023/01/17 12:48:19;;;;;;;10.23;5.53;;;1.40;99.90;;;;;;5046486;28;20511;-63
2023/01/17 12:50:53;;;;;;;15.30;6.65;;;1.40;99.90;;;;;;5047324;28;20510;-63
2023/01/17 12:53:32;;;;;;;13.20;6.22;;;1.50;99.90;;;;;;5074788;28;20059;-63
2023/01/17 12:56:00;;;;;;;12.18;6.15;;;1.40;99.90;;;;;;5087714;28;20249;-63
2023/01/17 12:58:30;;;;;;;21.95;6.88;;;1.40;99.90;;;;;;5056313;28;20458;-62
2023/01/17 13:01:13;;;;;;;15.40;6.95;;;1.40;99.90;;;;;;5045057;28;20098;-62
2023/01/17 13:03:49;;;;;;;24.83;10.25;;;1.50;99.90;;;;;;5068094;28;20048;-63
2023/01/17 13:06:23;;;;;;;29.40;9.38;;;1.50;99.90;;;;;;5082519;28;20388;-63
2023/01/17 13:08:52;;;;;;;24.30;7.90;;;1.50;99.90;;;;;;5074465;28;20422;-62
2023/01/17 13:11:55;;;;;;;13.40;5.18;;;1.50;99.90;;;;;;5088059;28;20534;-63
2023/01/17 13:14:22;;;;;;;9.70;4.97;;;1.40;99.90;;;;;;4993248;28;20078;-63
2023/01/17 13:16:57;;;;;;;16.33;5.15;;;1.50;99.90;;;;;;5087165;28;20276;-64
2023/01/17 13:20:00;;;;;;;12.45;5.07;;;1.50;99.90;;;;;;5051102;28;20506;-63
2023/01/17 13:22:27;;;;;;;19.05;5.78;;;1.40;99.90;;;;;;5082325;28;20138;-63
2023/01/17 13:24:59;;;;;;;13.68;5.20;;;1.50;99.90;;;;;;5053612;28;20199;-61
2023/01/17 13:27:59;;;;;;;14.93;5.20;;;1.50;99.90;;;;;;5074735;28;20130;-62
2023/01/17 13:30:31;;;;;;;14.52;4.90;;;1.50;99.90;;;;;;5052709;28;20041;-62
2023/01/17 13:33:24;;;;;;;17.30;5.38;;;1.70;99.90;;;;;;5072370;28;20070;-63
2023/01/17 13:35:59;;;;;;;14.45;6.22;;;1.70;99.90;;;;;;5072838;28;20490;-64
2023/01/17 13:38:43;;;;;;;13.20;5.55;;;1.80;99.90;;;;;;5087137;28;20076;-64
2023/01/17 13:41:49;;;;;;;17.20;5.90;;;1.90;99.90;;;;;;5069531;28;20449;-62
2023/01/17 13:44:23;;;;;;;10.15;4.70;;;1.90;99.90;;;;;;5074629;28;20083;-63
2023/01/17 13:47:03;;;;;;;19.95;5.70;;;1.90;99.90;;;;;;5070250;28;20507;-63
2023/01/17 13:49:33;;;;;;;15.23;6.07;;;2.00;99.90;;;;;;5067657;28;20052;-62
2023/01/17 13:52:04;;;;;;;15.75;6.80;;;2.00;99.90;;;;;;5069121;28;20513;-63
2023/01/17 13:54:31;;;;;;;14.52;7.43;;;1.90;99.90;;;;;;5044714;28;20087;-63
2023/01/17 13:57:28;;;;;;;16.10;6.30;;;2.00;99.90;;;;;;5036932;28;20583;-64
2023/01/17 13:59:57;;;;;;;14.32;6.45;;;2.00;99.90;;;;;;5075820;28;20115;-62
2023/01/17 14:02:36;;;;;;;14.48;6.72;;;2.00;99.90;;;;;;5089672;28;20044;-62
2023/01/17 14:05:54;;;;;;;24.45;6.47;;;2.10;99.90;;;;;;5070824;28;20090;-64
2023/01/17 14:08:21;;;;;;;15.23;5.97;;;2.00;99.90;;;;;;4989257;28;20081;-62
2023/01/17 14:10:51;;;;;;;15.32;7.18;;;2.00;99.90;;;;;;4972345;28;20469;-63
2023/01/17 14:13:37;;;;;;;17.33;7.57;;;2.10;99.90;;;;;;5032004;28;20055;-64
2023/01/17 14:16:26;;;;;;;15.52;6.20;;;2.10;99.90;;;;;;5085377;28;20052;-63
2023/01/17 14:18:54;;;;;;;18.52;7.28;;;2.10;99.90;;;;;;5086660;28;20048;-64
2023/01/17 14:21:25;;;;;;;16.25;7.47;;;2.10;99.90;;;;;;5052820;28;20045;-62
2023/01/17 14:24:11;;;;;;;11.25;6.28;;;2.20;99.90;;;;;;5045420;28;20132;-63
2023/01/17 14:26:50;;;;;;;19.73;7.40;;;2.20;99.90;;;;;;5085164;28;20059;-63
2023/01/17 14:29:42;;;;;;;13.50;7.65;;;2.20;99.90;;;;;;5087329;28;20606;-63
2023/01/17 14:32:20;;;;;;;19.02;7.28;;;2.20;99.90;;;;;;5066692;28;20576;-63
2023/01/17 14:34:49;;;;;;;15.63;6.40;;;2.20;99.90;;;;;;5065115;28;20139;-63
2023/01/17 14:37:44;;;;;;;12.77;6.22;;;2.20;99.90;;;;;;5067367;28;20428;-64
2023/01/17 14:40:19;;;;;;;22.63;8.55;;;2.20;99.90;;;;;;5078401;28;20075;-63